Time;durP1;ratioP1;P1;durP2;ratioP2;P2;SDS_P1;SDS_P2;PMS_P1;PMS_P2;Temp;Humidity;BMP_temperature;BMP_pressure;BME280_temperature;BME280_humidity;BME280_pressure;Samples;Min_cycle;Max_cycle;Signal;HPM_P1;HPM_P2
2022/04/19 00:00:42;;;;;;;4.95;2.92;;;5.00;99.90;;;;;;4924387;28;20144;-62
2022/04/19 00:03:11;;;;;;;5.32;3.08;;;5.00;99.90;;;;;;4932282;28;20185;-62
2022/04/19 00:05:39;;;;;;;4.40;3.33;;;4.90;99.90;;;;;;4923640;28;20073;-61
2022/04/19 00:08:08;;;;;;;5.03;3.00;;;4.90;99.90;;;;;;4928920;28;20860;-62
2022/04/19 00:10:35;;;;;;;5.50;4.22;;;4.90;99.90;;;;;;4928886;28;20363;-62
2022/04/19 00:13:04;;;;;;;4.22;3.55;;;4.80;99.90;;;;;;4927420;28;20039;-62
2022/04/19 00:15:32;;;;;;;5.38;3.65;;;4.80;99.90;;;;;;4929553;28;20642;-62
2022/04/19 00:18:04;;;;;;;5.75;3.38;;;4.80;99.90;;;;;;4928984;28;20136;-62
2022/04/19 00:20:33;;;;;;;6.07;4.15;;;4.80;99.90;;;;;;4930760;28;20042;-62
2022/04/19 00:23:00;;;;;;;6.28;4.22;;;4.80;99.90;;;;;;4923925;28;20057;-62
2022/04/19 00:25:27;;;;;;;4.97;3.65;;;4.70;99.90;;;;;;4928284;28;20424;-62
2022/04/19 00:27:54;;;;;;;5.22;3.92;;;4.70;99.90;;;;;;4907126;28;20099;-61
2022/04/19 00:30:22;;;;;;;5.25;3.35;;;4.70;99.90;;;;;;4907565;28;20596;-62
2022/04/19 00:32:49;;;;;;;8.52;3.20;;;4.70;99.90;;;;;;4911430;28;20753;-62
2022/04/19 00:35:16;;;;;;;6.55;3.15;;;4.60;99.90;;;;;;4907559;28;20112;-62
2022/04/19 00:37:43;;;;;;;;;;;4.60;99.90;;;;;;4913469;28;20043;-62
2022/04/19 00:40:10;;;;;;;3.70;3.28;;;4.60;99.90;;;;;;4925940;28;19930;-62
2022/04/19 00:42:38;;;;;;;3.22;2.88;;;4.60;99.90;;;;;;4908836;28;20141;-62
2022/04/19 00:45:06;;;;;;;4.07;3.50;;;4.60;99.90;;;;;;4926448;28;20050;-62
2022/04/19 00:47:34;;;;;;;6.53;3.47;;;4.60;99.90;;;;;;4929242;28;20054;-62
2022/04/19 00:50:06;;;;;;;5.38;3.67;;;4.60;99.90;;;;;;4928357;28;20207;-62
2022/04/19 00:52:37;;;;;;;6.05;3.85;;;4.60;99.90;;;;;;4932873;28;20069;-62
2022/04/19 00:55:09;;;;;;;3.85;3.38;;;4.50;99.90;;;;;;4944499;28;20137;-62
2022/04/19 00:57:42;;;;;;;7.32;3.92;;;4.50;99.90;;;;;;4944507;28;20182;-62
2022/04/19 01:00:13;;;;;;;4.72;3.08;;;4.50;99.90;;;;;;4947353;28;20571;-62
2022/04/19 01:02:49;;;;;;;6.68;3.25;;;4.50;99.90;;;;;;4944003;28;20160;-61
2022/04/19 01:05:19;;;;;;;4.03;3.20;;;4.50;99.90;;;;;;4945199;28;20598;-62
2022/04/19 01:07:46;;;;;;;5.93;3.30;;;4.50;99.90;;;;;;4946047;28;20169;-62
2022/04/19 01:10:17;;;;;;;5.03;3.47;;;4.50;99.90;;;;;;4942291;28;20210;-61
2022/04/19 01:15:30;;;;;;;4.53;3.30;;;4.50;99.90;;;;;;4941141;28;20045;-61
2022/04/19 01:18:09;;;;;;;4.85;4.05;;;4.40;99.90;;;;;;4909997;28;20568;-61
2022/04/19 01:20:39;;;;;;;4.90;3.78;;;4.40;99.90;;;;;;4903682;28;20366;-62
2022/04/19 01:23:11;;;;;;;6.00;3.75;;;4.40;99.90;;;;;;4933504;28;20181;-61
2022/04/19 01:25:37;;;;;;;6.13;3.28;;;4.30;99.90;;;;;;4928549;28;20536;-61
2022/04/19 01:28:05;;;;;;;5.68;3.97;;;4.40;99.90;;;;;;4928294;28;20333;-62
2022/04/19 01:30:35;;;;;;;5.03;3.65;;;4.40;99.90;;;;;;4929943;28;20151;-61
2022/04/19 01:33:02;;;;;;;4.55;3.13;;;4.30;99.90;;;;;;4927412;28;20126;-61
2022/04/19 01:35:30;;;;;;;5.45;3.63;;;4.40;99.90;;;;;;4932128;28;20145;-61
2022/04/19 01:37:58;;;;;;;6.60;3.65;;;4.40;99.90;;;;;;4929736;28;20034;-60
2022/04/19 01:40:39;;;;;;;3.95;3.17;;;4.40;99.90;;;;;;4929099;28;20421;-61
2022/04/19 01:43:10;;;;;;;5.97;4.10;;;4.40;99.90;;;;;;4931168;28;20153;-61
2022/04/19 01:45:48;;;;;;;5.63;3.90;;;4.40;99.90;;;;;;4929926;28;20050;-61
2022/04/19 01:48:20;;;;;;;3.72;3.13;;;4.40;99.90;;;;;;4929976;28;20243;-61
2022/04/19 01:50:47;;;;;;;5.95;3.75;;;4.30;99.90;;;;;;4928397;28;20047;-61
2022/04/19 01:53:15;;;;;;;6.10;3.22;;;4.30;99.90;;;;;;4933450;28;20038;-61
2022/04/19 01:55:44;;;;;;;5.72;3.72;;;4.30;99.90;;;;;;4928696;28;20047;-61
2022/04/19 01:58:29;;;;;;;4.40;3.40;;;4.30;99.90;;;;;;4929804;28;20706;-60
2022/04/19 02:00:58;;;;;;;9.38;3.60;;;4.30;99.90;;;;;;4927308;28;20061;-61
2022/04/19 02:03:25;;;;;;;8.82;3.33;;;4.30;99.90;;;;;;4929436;28;20319;-61
2022/04/19 02:05:52;;;;;;;4.35;3.47;;;4.30;99.90;;;;;;4927196;28;20919;-61
2022/04/19 02:08:21;;;;;;;4.30;3.10;;;4.30;99.90;;;;;;4930120;28;20580;-61
2022/04/19 02:10:48;;;;;;;8.05;3.60;;;4.30;99.90;;;;;;4932950;28;20270;-61
2022/04/19 02:13:16;;;;;;;6.38;3.92;;;4.30;99.90;;;;;;4926306;28;20204;-61
2022/04/19 02:16:09;;;;;;;5.40;3.90;;;4.30;99.90;;;;;;4932231;28;20058;-61
2022/04/19 02:18:37;;;;;;;3.75;3.10;;;4.30;99.90;;;;;;4930335;28;20049;-61
2022/04/19 02:21:04;;;;;;;4.10;3.25;;;4.30;99.90;;;;;;4929743;28;20759;-61
2022/04/19 02:23:31;;;;;;;5.78;3.60;;;4.20;99.90;;;;;;4929624;28;20674;-61
2022/04/19 02:25:58;;;;;;;6.78;4.45;;;4.20;99.90;;;;;;4929289;28;20042;-61
2022/04/19 02:28:26;;;;;;;7.25;4.13;;;4.20;99.90;;;;;;4926300;28;20046;-61
2022/04/19 02:31:10;;;;;;;7.45;3.45;;;4.20;99.90;;;;;;4928282;28;20374;-61
2022/04/19 02:33:42;;;;;;;5.68;3.80;;;4.20;99.90;;;;;;4925807;28;20042;-62
2022/04/19 02:36:10;;;;;;;4.28;3.60;;;4.20;99.90;;;;;;4926826;28;20073;-61
2022/04/19 02:38:38;;;;;;;7.20;3.75;;;4.20;99.90;;;;;;4926612;28;20160;-61
2022/04/19 02:41:05;;;;;;;4.90;3.75;;;4.10;99.90;;;;;;4928457;28;20054;-61
2022/04/19 02:43:34;;;;;;;4.05;3.25;;;4.10;99.90;;;;;;4927081;28;20820;-61
2022/04/19 02:46:01;;;;;;;6.05;3.67;;;4.00;99.90;;;;;;4926433;28;20054;-61
2022/04/19 02:48:34;;;;;;;4.53;3.78;;;4.00;99.90;;;;;;4927829;28;20593;-61
2022/04/19 02:51:05;;;;;;;5.82;3.97;;;4.00;99.90;;;;;;4930569;28;20053;-61
2022/04/19 02:53:32;;;;;;;6.30;3.97;;;3.90;99.90;;;;;;4929157;28;20136;-61
2022/04/19 02:55:59;;;;;;;4.68;3.45;;;3.90;99.90;;;;;;4931262;28;20129;-61
2022/04/19 02:58:28;;;;;;;6.28;4.07;;;3.90;99.90;;;;;;4928264;28;20211;-61
2022/04/19 03:00:56;;;;;;;5.57;3.50;;;3.90;99.90;;;;;;4931343;28;20312;-61
2022/04/19 03:03:24;;;;;;;4.60;3.20;;;3.90;99.90;;;;;;4915172;28;20046;-61
2022/04/19 03:05:52;;;;;;;4.90;2.95;;;3.90;99.90;;;;;;4908458;28;20054;-61
2022/04/19 03:08:20;;;;;;;6.45;3.78;;;3.90;99.90;;;;;;4911375;28;20224;-61
2022/04/19 03:10:49;;;;;;;4.25;3.05;;;3.90;99.90;;;;;;4908848;28;20196;-61
2022/04/19 03:13:17;;;;;;;4.43;3.08;;;3.90;99.90;;;;;;4909614;28;20827;-61
2022/04/19 03:15:44;;;;;;;6.00;3.85;;;3.90;99.90;;;;;;4916582;28;20034;-63
2022/04/19 03:18:12;;;;;;;4.60;3.00;;;3.90;99.90;;;;;;4931923;28;20054;-61
2022/04/19 03:20:39;;;;;;;5.50;3.78;;;3.90;99.90;;;;;;4910773;28;20038;-62
2022/04/19 03:28:47;;;;;;;6.40;4.00;;;3.90;99.90;;;;;;4928536;28;20128;-61
2022/04/19 03:31:15;;;;;;;7.72;3.95;;;3.90;99.90;;;;;;4928637;28;20034;-62
2022/04/19 03:33:43;;;;;;;5.50;3.58;;;3.90;99.90;;;;;;4927742;28;20053;-62
2022/04/19 03:36:11;;;;;;;8.00;4.53;;;3.80;99.90;;;;;;4929083;28;20157;-62
2022/04/19 03:38:38;;;;;;;5.10;3.95;;;3.80;99.90;;;;;;4928146;28;20191;-62
2022/04/19 03:41:05;;;;;;;5.15;3.42;;;3.80;99.90;;;;;;4924807;28;20196;-62
2022/04/19 03:43:33;;;;;;;5.15;3.80;;;3.70;99.90;;;;;;4924558;28;20062;-62
2022/04/19 03:46:00;;;;;;;5.72;3.78;;;3.70;99.90;;;;;;4927307;28;20244;-62
2022/04/19 03:48:29;;;;;;;5.80;4.10;;;3.70;99.90;;;;;;4927691;28;20065;-62
2022/04/19 03:50:56;;;;;;;7.80;4.50;;;3.70;99.90;;;;;;4925761;28;20886;-62
2022/04/19 03:53:23;;;;;;;6.65;4.13;;;3.70;99.90;;;;;;4927354;28;20299;-62
2022/04/19 03:55:51;;;;;;;10.00;4.78;;;3.70;99.90;;;;;;4926040;28;20212;-62
2022/04/19 03:58:18;;;;;;;6.50;4.75;;;3.70;99.90;;;;;;4931093;28;20042;-61
2022/04/19 04:00:46;;;;;;;6.68;4.15;;;3.70;99.90;;;;;;4926041;28;20057;-62
2022/04/19 04:03:14;;;;;;;5.53;4.18;;;3.70;99.90;;;;;;4913581;28;20284;-61
2022/04/19 04:05:41;;;;;;;6.85;3.85;;;3.70;99.90;;;;;;4929307;28;20049;-62
2022/04/19 04:08:09;;;;;;;5.97;3.72;;;3.60;99.90;;;;;;4923913;28;20046;-61
2022/04/19 04:10:47;;;;;;;8.68;4.15;;;3.60;99.90;;;;;;4911072;28;20051;-61
2022/04/19 04:13:14;;;;;;;5.90;3.78;;;3.60;99.90;;;;;;4924897;28;20046;-61
2022/04/19 04:15:41;;;;;;;6.00;4.32;;;3.60;99.90;;;;;;4927741;28;20284;-61
2022/04/19 04:18:10;;;;;;;5.95;3.85;;;3.60;99.90;;;;;;4925329;28;20588;-61
2022/04/19 04:20:37;;;;;;;4.43;3.30;;;3.60;99.90;;;;;;4930295;28;20241;-62
2022/04/19 04:23:05;;;;;;;5.85;3.42;;;3.50;99.90;;;;;;4929718;28;20265;-63
2022/04/19 04:25:32;;;;;;;4.50;3.58;;;3.50;99.90;;;;;;4926592;28;20288;-58
2022/04/19 04:27:59;;;;;;;7.38;4.00;;;3.50;99.90;;;;;;4929147;28;20358;-57
2022/04/19 04:30:35;;;;;;;5.32;4.00;;;3.60;99.90;;;;;;4914764;28;20049;-58
2022/04/19 04:33:03;;;;;;;9.68;3.17;;;3.50;99.90;;;;;;4925058;28;20042;-56
2022/04/19 04:35:31;;;;;;;13.07;4.65;;;3.50;99.90;;;;;;4941651;28;20038;-57
2022/04/19 04:37:58;;;;;;;6.05;4.50;;;3.50;99.90;;;;;;4927554;28;20050;-57
2022/04/19 04:40:27;;;;;;;6.88;4.47;;;3.40;99.90;;;;;;4923100;28;20042;-56
2022/04/19 04:42:59;;;;;;;5.63;4.18;;;3.40;99.90;;;;;;4923819;28;20067;-62
2022/04/19 04:45:28;;;;;;;6.20;4.63;;;3.40;99.90;;;;;;4925367;28;20131;-61
2022/04/19 04:50:42;;;;;;;10.60;5.05;;;3.30;99.90;;;;;;4924980;28;20038;-62
2022/04/19 04:53:10;;;;;;;8.07;4.40;;;3.30;99.90;;;;;;4925112;28;20038;-62
2022/04/19 04:55:41;;;;;;;9.68;5.47;;;3.30;99.90;;;;;;4908693;28;20042;-62
2022/04/19 04:58:17;;;;;;;7.45;4.50;;;3.40;99.90;;;;;;4925147;28;20054;-62
2022/04/19 05:00:44;;;;;;;9.27;4.25;;;3.40;99.90;;;;;;4924911;28;20046;-62
2022/04/19 05:03:11;;;;;;;8.88;5.38;;;3.40;99.90;;;;;;4908433;28;20223;-61
2022/04/19 05:05:39;;;;;;;5.55;3.78;;;3.40;99.90;;;;;;4929246;28;20114;-62
2022/04/19 05:08:09;;;;;;;5.03;3.78;;;3.40;99.90;;;;;;4928912;28;20042;-63
2022/04/19 05:10:36;;;;;;;5.25;4.13;;;3.40;99.90;;;;;;4924283;28;20122;-62
2022/04/19 05:13:10;;;;;;;5.93;4.55;;;3.50;99.90;;;;;;4927459;28;20042;-62
2022/04/19 05:15:37;;;;;;;9.27;4.55;;;3.50;99.90;;;;;;4903901;28;20050;-58
2022/04/19 05:18:04;;;;;;;9.63;4.90;;;3.50;99.90;;;;;;4928324;28;20065;-59
2022/04/19 05:20:33;;;;;;;6.97;4.68;;;3.60;99.90;;;;;;4923643;28;20133;-57
2022/04/19 05:23:00;;;;;;;6.13;4.40;;;3.60;99.90;;;;;;4925068;28;20065;-59
2022/04/19 05:25:27;;;;;;;6.38;4.32;;;3.70;99.90;;;;;;4943181;28;20049;-58
2022/04/19 05:27:55;;;;;;;7.25;4.45;;;3.70;99.90;;;;;;4938010;28;20046;-59
2022/04/19 05:30:23;;;;;;;9.73;5.07;;;3.80;99.90;;;;;;4926155;28;20054;-57
2022/04/19 05:32:50;;;;;;;4.93;3.80;;;3.90;99.90;;;;;;4908302;28;20047;-57
2022/04/19 05:35:17;;;;;;;6.07;4.38;;;4.00;99.90;;;;;;4926212;28;20142;-58
2022/04/19 05:37:46;;;;;;;5.80;3.92;;;4.10;99.90;;;;;;4925820;28;20428;-58
2022/04/19 05:40:14;;;;;;;5.93;4.30;;;4.20;99.90;;;;;;4942419;28;20181;-57
2022/04/19 05:42:41;;;;;;;9.05;4.78;;;4.30;99.90;;;;;;4926486;28;20046;-64
2022/04/19 05:45:09;;;;;;;7.03;4.70;;;4.40;99.90;;;;;;4922765;28;20038;-61
2022/04/19 05:47:37;;;;;;;10.20;4.88;;;4.50;99.90;;;;;;4924456;28;20128;-62
2022/04/19 05:50:04;;;;;;;5.20;3.92;;;4.50;99.90;;;;;;4923866;28;20140;-57
2022/04/19 05:52:32;;;;;;;5.63;3.92;;;4.70;99.90;;;;;;4924734;28;20049;-60
2022/04/19 05:54:59;;;;;;;5.90;4.18;;;4.80;99.90;;;;;;4926932;28;20481;-58
2022/04/19 05:57:26;;;;;;;6.28;4.03;;;4.90;99.90;;;;;;4927545;28;20207;-58
2022/04/19 05:59:53;;;;;;;7.22;4.20;;;5.00;99.90;;;;;;4927825;28;20145;-57
2022/04/19 06:05:07;;;;;;;10.75;6.10;;;5.20;99.90;;;;;;4928496;28;20153;-60
2022/04/19 06:07:43;;;;;;;7.05;4.97;;;5.30;99.90;;;;;;4929834;28;20910;-57
2022/04/19 06:10:11;;;;;;;8.00;4.93;;;5.50;99.90;;;;;;4933199;28;20053;-57
2022/04/19 06:12:41;;;;;;;8.30;4.30;;;5.60;99.90;;;;;;4929454;28;20034;-58
2022/04/19 06:15:10;;;;;;;6.70;4.55;;;5.70;99.90;;;;;;4929509;28;20038;-57
2022/04/19 06:17:38;;;;;;;6.13;3.92;;;5.80;99.90;;;;;;4927146;28;20108;-58
2022/04/19 06:20:15;;;;;;;7.18;4.55;;;6.00;99.90;;;;;;4930081;28;20053;-58
2022/04/19 06:22:44;;;;;;;6.90;4.47;;;6.10;99.90;;;;;;4911454;28;20057;-58
2022/04/19 06:25:14;;;;;;;7.80;4.70;;;6.30;99.90;;;;;;4931857;28;20054;-58
2022/04/19 06:27:41;;;;;;;5.32;4.20;;;6.50;99.90;;;;;;4926571;28;20042;-58
2022/04/19 06:30:09;;;;;;;7.30;4.68;;;6.60;99.90;;;;;;4930467;28;20303;-58
2022/04/19 06:32:36;;;;;;;6.82;4.75;;;6.70;99.90;;;;;;4930762;28;20109;-58
2022/04/19 06:35:05;;;;;;;5.18;3.88;;;6.70;99.90;;;;;;4921233;28;20228;-58
2022/04/19 06:37:34;;;;;;;6.63;4.20;;;6.80;99.90;;;;;;4926127;28;20600;-62
2022/04/19 06:40:11;;;;;;;8.25;5.43;;;6.90;99.90;;;;;;4926664;28;20058;-62
2022/04/19 06:42:39;;;;;;;5.60;4.00;;;7.00;99.90;;;;;;4928077;28;20266;-54
2022/04/19 06:45:18;;;;;;;8.35;4.40;;;7.10;99.90;;;;;;4928431;28;20046;-54
2022/04/19 06:47:57;;;;;;;5.85;4.50;;;7.30;99.90;;;;;;4928410;28;20042;-56
2022/04/19 06:50:26;;;;;;;6.82;4.25;;;7.50;99.90;;;;;;4931644;28;20042;-57
2022/04/19 06:52:57;;;;;;;8.63;3.45;;;7.60;99.90;;;;;;4910908;28;20165;-55
2022/04/19 06:55:42;;;;;;;5.15;4.20;;;7.80;99.90;;;;;;4927790;28;20390;-54
2022/04/19 06:58:09;;;;;;;7.93;5.03;;;7.90;99.90;;;;;;4927488;28;20050;-53
2022/04/19 07:00:37;;;;;;;7.65;3.75;;;8.00;99.90;;;;;;4927471;28;20053;-61
2022/04/19 07:03:05;;;;;;;6.70;4.10;;;8.10;99.90;;;;;;4930303;28;20114;-62
2022/04/19 07:05:50;;;;;;;10.23;4.82;;;8.20;99.90;;;;;;4928752;28;20078;-62
2022/04/19 07:08:18;;;;;;;6.50;4.47;;;8.40;99.90;;;;;;4927318;28;20065;-57
2022/04/19 07:10:45;;;;;;;7.75;4.43;;;8.50;99.90;;;;;;4927478;28;20053;-57
2022/04/19 07:13:44;;;;;;;5.82;3.90;;;8.70;99.90;;;;;;4931475;28;20120;-61
2022/04/19 07:16:22;;;;;;;8.75;4.38;;;8.90;99.90;;;;;;4908324;28;20050;-58
2022/04/19 07:18:50;;;;;;;7.15;4.53;;;9.10;99.90;;;;;;4928462;28;20050;-56
2022/04/19 07:27:08;;;;;;;9.85;5.72;;;9.50;99.90;;;;;;4912218;28;20121;-58
2022/04/19 07:29:35;;;;;;;8.23;4.78;;;9.60;99.90;;;;;;4950364;28;20046;-60
2022/04/19 07:32:03;;;;;;;6.88;5.00;;;9.70;99.90;;;;;;4949785;28;20121;-59
2022/04/19 07:34:49;;;;;;;9.68;4.82;;;9.70;99.90;;;;;;4934572;28;20046;-59
2022/04/19 07:37:17;;;;;;;7.07;4.68;;;9.90;99.90;;;;;;4949896;28;20354;-58
2022/04/19 07:39:44;;;;;;;8.65;4.45;;;10.00;99.90;;;;;;4940502;28;20044;-59
2022/04/19 07:42:11;;;;;;;11.20;4.80;;;10.10;99.90;;;;;;4949087;28;20041;-62
2022/04/19 07:44:44;;;;;;;5.18;4.03;;;10.20;99.90;;;;;;4934661;28;20645;-63
2022/04/19 07:47:14;;;;;;;7.38;4.55;;;10.60;99.90;;;;;;4945207;28;20160;-59
2022/04/19 07:49:42;;;;;;;10.40;4.40;;;11.30;97.60;;;;;;4926814;28;20576;-61
2022/04/19 07:52:10;;;;;;;7.15;4.82;;;12.10;94.90;;;;;;4927157;28;20595;-60
2022/04/19 07:54:37;;;;;;;6.55;4.97;;;12.70;94.80;;;;;;4929635;28;20790;-58
2022/04/19 07:57:05;;;;;;;17.17;5.20;;;13.40;93.50;;;;;;4926366;28;20559;-61
2022/04/19 07:59:33;;;;;;;8.23;4.40;;;14.00;90.50;;;;;;4939868;28;20149;-61
2022/04/19 08:02:00;;;;;;;8.38;4.13;;;14.50;81.50;;;;;;4944184;28;20290;-60
2022/04/19 08:04:27;;;;;;;7.35;4.72;;;14.80;70.00;;;;;;4946932;28;20049;-61
2022/04/19 08:07:01;;;;;;;7.10;4.63;;;15.10;68.40;;;;;;4944616;28;20053;-61
2022/04/19 08:09:29;;;;;;;8.27;5.38;;;15.40;65.60;;;;;;4940559;28;20852;-63
2022/04/19 08:11:56;;;;;;;13.60;5.63;;;15.90;65.60;;;;;;4928352;28;20146;-63
2022/04/19 08:14:23;;;;;;;9.88;5.50;;;16.30;62.10;;;;;;4928790;28;20339;-63
2022/04/19 08:16:50;;;;;;;10.75;4.95;;;16.40;58.40;;;;;;4926722;28;20034;-63
2022/04/19 08:19:17;;;;;;;7.57;5.65;;;16.50;58.20;;;;;;4929524;28;20153;-63
2022/04/19 08:21:45;;;;;;;18.08;5.30;;;16.50;57.20;;;;;;4924420;28;20050;-63
2022/04/19 08:24:13;;;;;;;17.88;6.35;;;16.60;56.50;;;;;;4925498;28;20206;-63
2022/04/19 08:26:40;;;;;;;20.70;5.45;;;16.60;55.60;;;;;;4927724;28;20290;-62
2022/04/19 08:29:07;;;;;;;9.95;5.10;;;16.50;57.40;;;;;;4932035;28;20045;-62
2022/04/19 08:31:35;;;;;;;8.50;4.78;;;16.60;57.00;;;;;;4927526;28;20046;-63
2022/04/19 08:34:02;;;;;;;10.27;5.18;;;16.80;58.30;;;;;;4927384;28;20821;-63
2022/04/19 08:36:30;;;;;;;6.15;4.90;;;16.90;55.40;;;;;;4905023;28;20035;-63
2022/04/19 08:38:57;;;;;;;6.45;4.85;;;16.90;56.30;;;;;;4924594;28;20050;-63
2022/04/19 08:41:26;;;;;;;10.80;4.68;;;17.00;56.20;;;;;;4924629;28;20226;-63
2022/04/19 08:43:54;;;;;;;8.40;5.30;;;17.20;54.60;;;;;;4924455;28;20639;-63
2022/04/19 08:46:22;;;;;;;7.80;4.82;;;17.30;53.20;;;;;;4930864;28;20618;-63
2022/04/19 08:48:50;;;;;;;6.68;4.30;;;17.30;53.60;;;;;;4925542;28;20046;-63
2022/04/19 08:51:20;;;;;;;7.03;5.03;;;17.50;56.50;;;;;;4931697;28;20899;-62
2022/04/19 08:59:28;;;;;;;9.00;4.53;;;17.80;53.50;;;;;;4928760;28;20829;-63
2022/04/19 09:01:55;;;;;;;6.78;5.32;;;17.80;54.50;;;;;;4927494;28;20160;-63
2022/04/19 09:04:25;;;;;;;7.70;5.07;;;18.00;55.80;;;;;;4928613;28;20572;-63
2022/04/19 09:06:57;;;;;;;9.15;4.75;;;18.20;55.20;;;;;;4928667;28;20405;-64
2022/04/19 09:09:30;;;;;;;7.15;5.28;;;18.20;52.70;;;;;;4927057;28;20065;-63
2022/04/19 09:12:12;;;;;;;9.25;5.10;;;18.20;52.20;;;;;;4926381;28;20639;-63
2022/04/19 09:14:58;;;;;;;12.75;4.53;;;18.20;52.00;;;;;;4929046;28;20066;-63
2022/04/19 09:17:42;;;;;;;8.48;5.00;;;18.30;52.20;;;;;;4923920;28;20043;-63
2022/04/19 09:20:15;;;;;;;8.93;4.97;;;18.40;52.30;;;;;;4919729;28;20120;-63
2022/04/19 09:22:43;;;;;;;8.85;5.10;;;18.40;51.30;;;;;;4924126;28;20599;-61
2022/04/19 09:25:29;;;;;;;7.35;4.82;;;18.30;49.90;;;;;;4927210;28;20042;-60
2022/04/19 09:27:57;;;;;;;16.15;5.00;;;18.00;48.20;;;;;;4926714;28;20224;-59
2022/04/19 09:30:30;;;;;;;13.85;5.88;;;17.90;50.80;;;;;;4927989;28;20066;-56
2022/04/19 09:33:02;;;;;;;7.30;5.03;;;18.00;54.20;;;;;;4928857;28;20133;-57
2022/04/19 09:35:31;;;;;;;9.48;4.05;;;18.20;54.70;;;;;;4924589;28;20054;-60
2022/04/19 09:37:59;;;;;;;6.85;4.63;;;18.50;53.50;;;;;;4926026;28;20875;-64
2022/04/19 09:40:30;;;;;;;5.22;3.95;;;18.80;52.50;;;;;;4925751;28;20871;-59
2022/04/19 09:42:57;;;;;;;7.07;4.57;;;19.10;52.20;;;;;;4926715;28;20452;-60
2022/04/19 09:45:28;;;;;;;6.57;4.50;;;19.40;51.80;;;;;;4928830;28;20042;-58
2022/04/19 09:47:55;;;;;;;5.63;4.25;;;19.70;51.90;;;;;;4931549;28;20096;-58
2022/04/19 09:50:22;;;;;;;6.15;4.47;;;19.90;50.30;;;;;;4929349;28;20053;-58
2022/04/19 09:52:51;;;;;;;8.32;4.50;;;20.00;51.60;;;;;;4928412;28;21686;-60
2022/04/19 09:55:18;;;;;;;10.57;5.32;;;20.10;48.70;;;;;;4947187;28;20042;-61
2022/04/19 09:57:45;;;;;;;9.25;5.28;;;20.10;49.50;;;;;;4944013;28;20042;-61
2022/04/19 10:00:15;;;;;;;10.27;4.50;;;20.10;48.60;;;;;;4948953;28;20458;-62
2022/04/19 10:08:21;;;;;;;6.60;4.68;;;20.40;48.60;;;;;;4948028;28;20301;-60
2022/04/19 10:10:50;;;;;;;5.57;4.38;;;20.60;49.50;;;;;;4946193;28;20638;-66
2022/04/19 10:13:19;;;;;;;8.45;4.35;;;20.80;46.80;;;;;;4948709;28;20140;-61
2022/04/19 10:15:46;;;;;;;5.20;4.20;;;21.00;48.00;;;;;;4947099;28;20434;-60
2022/04/19 10:18:13;;;;;;;7.07;4.93;;;21.10;46.10;;;;;;4930150;28;20049;-61
2022/04/19 10:21:09;;;;;;;6.00;4.82;;;21.30;45.40;;;;;;4928965;28;20084;-60
2022/04/19 10:23:41;;;;;;;7.80;5.45;;;21.20;45.80;;;;;;4932864;28;20598;-61
2022/04/19 10:26:24;;;;;;;9.88;4.43;;;21.00;43.60;;;;;;4929246;28;20356;-60
2022/04/19 10:28:53;;;;;;;8.68;5.30;;;20.90;45.30;;;;;;4929773;28;20736;-60
2022/04/19 10:31:31;;;;;;;5.70;4.15;;;21.00;46.70;;;;;;4925288;28;20975;-64
2022/04/19 10:34:04;;;;;;;8.55;5.38;;;21.10;45.80;;;;;;4933805;28;20046;-61
2022/04/19 10:36:36;;;;;;;10.57;5.43;;;21.10;42.80;;;;;;4931728;28;20035;-63
2022/04/19 10:39:13;;;;;;;5.95;4.25;;;21.00;44.80;;;;;;4928982;28;21078;-62
2022/04/19 10:41:47;;;;;;;6.68;4.97;;;21.00;43.60;;;;;;4924807;28;20231;-62
2022/04/19 10:44:28;;;;;;;6.45;5.07;;;21.10;45.30;;;;;;4908809;28;20591;-63
2022/04/19 10:47:12;;;;;;;6.93;5.05;;;21.10;46.60;;;;;;4925393;28;20339;-61
2022/04/19 10:50:01;;;;;;;7.05;5.28;;;21.10;42.10;;;;;;4911629;28;20290;-58
2022/04/19 10:52:40;;;;;;;7.78;4.97;;;20.90;43.10;;;;;;4922956;28;20112;-58
2022/04/19 10:55:17;;;;;;;7.15;4.40;;;21.00;44.20;;;;;;4929858;28;20144;-58
2022/04/19 10:58:07;;;;;;;;;;;21.10;44.10;;;;;;4929962;28;20559;-57
2022/04/19 11:00:52;;;;;;;6.88;4.65;;;21.00;43.70;;;;;;4932693;28;19957;-62
2022/04/19 11:03:35;;;;;;;7.97;5.00;;;20.80;45.70;;;;;;4931017;28;20960;-62
2022/04/19 11:06:04;;;;;;;9.55;5.53;;;20.90;44.90;;;;;;4930807;28;20583;-62
2022/04/19 11:08:36;;;;;;;10.57;5.20;;;21.00;42.60;;;;;;4929049;28;20043;-63
2022/04/19 11:11:02;;;;;;;7.63;5.07;;;21.00;44.20;;;;;;4932195;28;20068;-63
2022/04/19 11:13:37;;;;;;;10.82;5.85;;;21.10;44.00;;;;;;4930553;28;20034;-63
2022/04/19 11:16:04;;;;;;;8.93;5.78;;;21.10;43.80;;;;;;4934324;28;20049;-63
2022/04/19 11:18:33;;;;;;;7.15;4.80;;;21.10;45.50;;;;;;4926568;28;20046;-63
2022/04/19 11:21:52;;;;;;;6.38;5.07;;;21.10;43.40;;;;;;4931366;28;20655;-63
2022/04/19 11:24:57;;;;;;;10.30;5.30;;;20.90;42.60;;;;;;4929534;28;20038;-63
2022/04/19 11:27:52;;;;;;;11.02;6.10;;;20.90;43.80;;;;;;4930489;28;20042;-62
2022/04/19 11:30:23;;;;;;;17.98;5.13;;;20.90;44.40;;;;;;4929981;28;20060;-62
2022/04/19 11:32:58;;;;;;;7.43;5.38;;;20.90;43.00;;;;;;4930331;28;20173;-62
2022/04/19 11:35:27;;;;;;;10.77;4.97;;;20.70;44.20;;;;;;4930181;28;20247;-62
2022/04/19 11:37:54;;;;;;;7.68;5.20;;;20.70;44.90;;;;;;4929759;28;20096;-62
2022/04/19 11:48:50;;;;;;;12.45;5.80;;;20.80;42.90;;;;;;4929901;28;20038;-62
2022/04/19 11:51:20;;;;;;;7.28;5.65;;;20.90;43.50;;;;;;4930033;28;20225;-62
2022/04/19 11:53:52;;;;;;;8.07;4.45;;;21.00;43.30;;;;;;4927910;28;20043;-63
2022/04/19 11:56:19;;;;;;;8.68;5.43;;;21.10;43.40;;;;;;4932730;28;20067;-62
2022/04/19 11:58:52;;;;;;;5.65;4.35;;;21.30;43.30;;;;;;4927657;28;20080;-62
2022/04/19 12:01:20;;;;;;;9.13;4.80;;;21.40;43.40;;;;;;4929553;28;20551;-62
2022/04/19 12:03:47;;;;;;;8.40;4.68;;;21.60;41.20;;;;;;4928666;28;20038;-62
2022/04/19 12:06:18;;;;;;;5.25;4.25;;;21.60;39.10;;;;;;4928106;28;20049;-57
2022/04/19 12:08:51;;;;;;;7.68;4.88;;;21.50;38.20;;;;;;4930161;28;20356;-59
2022/04/19 12:11:21;;;;;;;4.82;4.32;;;21.50;38.30;;;;;;4926527;28;20192;-58
2022/04/19 12:13:49;;;;;;;4.68;3.90;;;21.40;39.60;;;;;;4926383;28;20888;-58
2022/04/19 12:16:30;;;;;;;5.78;4.57;;;21.40;42.30;;;;;;4928141;28;20159;-58
2022/04/19 12:19:00;;;;;;;8.45;4.95;;;21.50;40.80;;;;;;4928318;28;20042;-58
2022/04/19 12:21:38;;;;;;;8.15;4.97;;;21.50;41.40;;;;;;4929143;28;20787;-59
2022/04/19 12:24:18;;;;;;;5.60;4.25;;;21.50;41.10;;;;;;4931808;28;20034;-60
2022/04/19 12:26:50;;;;;;;5.32;4.25;;;21.60;41.60;;;;;;4929488;28;20058;-58
2022/04/19 12:29:18;;;;;;;6.90;4.45;;;21.70;39.20;;;;;;4927457;28;20049;-58
2022/04/19 12:31:47;;;;;;;5.65;4.20;;;21.70;39.60;;;;;;4926957;28;20039;-58
2022/04/19 12:34:15;;;;;;;6.50;4.40;;;21.60;39.60;;;;;;4931103;28;20574;-57
2022/04/19 12:36:49;;;;;;;10.05;5.55;;;21.70;39.10;;;;;;4927837;28;20221;-57
2022/04/19 12:39:21;;;;;;;4.82;3.85;;;21.70;39.60;;;;;;4921973;28;20845;-57
2022/04/19 12:41:49;;;;;;;5.15;4.05;;;21.80;40.70;;;;;;4928237;28;20061;-62
2022/04/19 12:44:18;;;;;;;4.68;3.78;;;21.90;41.10;;;;;;4941531;28;20042;-63
2022/04/19 12:46:48;;;;;;;10.05;4.75;;;21.90;39.30;;;;;;4925734;28;20279;-63
2022/04/19 12:49:26;;;;;;;7.22;5.15;;;22.00;39.10;;;;;;4928332;28;20135;-63
2022/04/19 12:52:05;;;;;;;6.60;5.05;;;21.90;37.80;;;;;;4926677;28;20053;-63
2022/04/19 12:54:36;;;;;;;8.18;4.93;;;21.90;36.80;;;;;;4928955;28;20435;-63
2022/04/19 12:57:12;;;;;;;5.82;4.65;;;21.90;40.80;;;;;;4929052;28;20920;-64
2022/04/19 12:59:40;;;;;;;6.38;4.13;;;22.10;37.30;;;;;;4927699;28;20849;-63
2022/04/19 13:02:07;;;;;;;6.82;4.45;;;22.10;38.70;;;;;;4931058;28;20559;-63
2022/04/19 13:04:35;;;;;;;6.00;4.40;;;22.10;38.30;;;;;;4928391;28;20044;-63
2022/04/19 13:12:33;;;;;;;5.95;4.18;;;21.90;37.80;;;;;;4927748;28;20039;-63
2022/04/19 13:15:04;;;;;;;6.10;3.95;;;22.00;38.40;;;;;;4929924;28;20058;-63
2022/04/19 13:17:34;;;;;;;8.93;3.95;;;22.10;38.90;;;;;;4932535;28;20213;-63
2022/04/19 13:20:02;;;;;;;4.95;3.65;;;22.20;38.50;;;;;;4932888;28;20358;-63
2022/04/19 13:22:30;;;;;;;6.13;3.85;;;22.20;35.90;;;;;;4935421;28;20039;-63
2022/04/19 13:25:00;;;;;;;3.90;3.47;;;22.30;39.10;;;;;;4936500;28;20572;-63
2022/04/19 13:27:30;;;;;;;3.70;3.10;;;22.50;40.00;;;;;;4934710;28;20064;-63
2022/04/19 13:29:57;;;;;;;4.43;3.45;;;22.70;40.40;;;;;;4932864;28;20189;-63
2022/04/19 13:32:24;;;;;;;7.07;3.47;;;22.80;38.60;;;;;;4936026;28;20548;-62
2022/04/19 13:34:52;;;;;;;10.35;4.65;;;22.80;38.50;;;;;;4934267;28;20049;-63
2022/04/19 13:38:23;;;;;;;10.13;3.63;;;22.70;38.60;;;;;;4936427;28;20113;-62
2022/04/19 13:40:08;;;;;;;50.10;6.90;;;22.60;39.40;;;;;;4932498;28;20168;-63
2022/04/19 13:42:35;;;;;;;6.15;3.28;;;22.50;37.60;;;;;;4934551;28;20548;-63
2022/04/19 13:45:03;;;;;;;8.02;3.55;;;22.40;38.20;;;;;;4936058;28;20571;-62
2022/04/19 13:47:31;;;;;;;4.82;3.22;;;22.30;38.10;;;;;;4932657;28;20208;-62
2022/04/19 13:49:58;;;;;;;824.67;104.55;;;22.30;38.70;;;;;;4934587;28;20614;-62
2022/04/19 13:52:25;;;;;;;15.13;4.07;;;22.30;39.30;;;;;;4935747;28;20189;-63
2022/04/19 13:54:52;;;;;;;5.18;3.03;;;22.20;38.10;;;;;;4936296;28;20092;-63